Time;durP1;ratioP1;P1;durP2;ratioP2;P2;SDS_P1;SDS_P2;PMS_P1;PMS_P2;Temp;Humidity;BMP_temperature;BMP_pressure;BME280_temperature;BME280_humidity;BME280_pressure;Samples;Min_cycle;Max_cycle;Signal;HPM_P1;HPM_P2
2021/07/25 00:00:10;;;;;;;;;5.33;4.33;;;;;;;;5124148;27;46276;-77
2021/07/25 00:02:35;;;;;;;;;5.00;4.33;;;;;;;;5123579;27;45243;-76
2021/07/25 00:05:01;;;;;;;;;4.00;4.00;;;;;;;;5126171;27;45216;-76
2021/07/25 00:07:26;;;;;;;;;6.67;4.00;;;;;;;;5126116;27;45248;-77
2021/07/25 00:09:51;;;;;;;;;6.67;6.67;;;;;;;;5125360;27;45369;-76
2021/07/25 00:12:16;;;;;;;;;6.00;6.00;;;;;;;;5125135;27;45307;-77
2021/07/25 00:14:42;;;;;;;;;4.00;4.00;;;;;;;;5124038;27;45210;-77
2021/07/25 00:17:07;;;;;;;;;5.00;5.00;;;;;;;;5123926;27;45291;-77
2021/07/25 00:19:33;;;;;;;;;5.00;5.00;;;;;;;;5124547;27;45369;-77
2021/07/25 00:21:58;;;;;;;;;5.67;5.67;;;;;;;;5130382;27;45358;-77
2021/07/25 00:24:30;;;;;;;;;7.00;7.00;;;;;;;;5126167;27;45312;-78
2021/07/25 00:26:58;;;;;;;;;7.00;7.00;;;;;;;;5121053;27;45499;-77
2021/07/25 00:29:25;;;;;;;;;6.00;6.00;;;;;;;;5121804;27;45494;-77
2021/07/25 00:31:50;;;;;;;;;3.67;3.67;;;;;;;;5141813;27;45257;-78
2021/07/25 00:34:15;;;;;;;;;4.00;3.00;;;;;;;;5141759;27;45310;-78
2021/07/25 00:36:40;;;;;;;;;4.00;3.00;;;;;;;;5141348;27;45571;-77
2021/07/25 00:39:10;;;;;;;;;3.33;3.33;;;;;;;;5141082;27;46271;-77
2021/07/25 00:41:35;;;;;;;;;4.00;4.00;;;;;;;;5141734;27;45254;-77
2021/07/25 00:44:01;;;;;;;;;4.67;4.00;;;;;;;;5141805;27;45249;-77
2021/07/25 00:46:26;;;;;;;;;3.00;3.00;;;;;;;;5141596;27;45216;-77
2021/07/25 00:48:51;;;;;;;;;3.33;3.33;;;;;;;;5141538;27;45212;-78
2021/07/25 00:51:17;;;;;;;;;5.67;4.67;;;;;;;;5141628;27;45264;-77
2021/07/25 00:53:42;;;;;;;;;5.33;4.00;;;;;;;;5141830;27;45280;-78
2021/07/25 00:56:08;;;;;;;;;4.33;4.00;;;;;;;;5141567;27;45372;-78
2021/07/25 00:58:38;;;;;;;;;5.00;5.00;;;;;;;;5141469;27;45681;-77
2021/07/25 01:01:04;;;;;;;;;5.00;5.00;;;;;;;;5140349;27;45732;-78
2021/07/25 01:03:47;;;;;;;;;6.67;5.33;;;;;;;;5141532;27;45202;-78
2021/07/25 01:06:22;;;;;;;;;6.00;6.00;;;;;;;;5141296;27;45263;-78
2021/07/25 01:08:57;;;;;;;;;4.33;4.33;;;;;;;;5141339;27;46831;-77
2021/07/25 01:11:26;;;;;;;;;4.00;4.00;;;;;;;;5141418;27;45221;-77
2021/07/25 01:13:54;;;;;;;;;5.67;5.00;;;;;;;;5141111;27;45271;-76
2021/07/25 01:16:20;;;;;;;;;5.33;4.33;;;;;;;;5141146;27;45361;-77
2021/07/25 01:18:46;;;;;;;;;7.33;5.67;;;;;;;;5140913;27;45809;-77
2021/07/25 01:21:12;;;;;;;;;3.00;3.00;;;;;;;;5141304;27;45358;-77
2021/07/25 01:23:38;;;;;;;;;5.00;5.00;;;;;;;;5141453;27;45262;-77
2021/07/25 01:26:03;;;;;;;;;4.00;4.00;;;;;;;;5141117;27;45216;-77
2021/07/25 01:28:33;;;;;;;;;4.00;4.00;;;;;;;;5141276;27;45721;-77
2021/07/25 01:30:59;;;;;;;;;5.67;5.67;;;;;;;;5126476;27;45271;-77
2021/07/25 01:33:30;;;;;;;;;4.33;4.33;;;;;;;;5120431;27;45363;-77
2021/07/25 01:35:59;;;;;;;;;5.33;5.33;;;;;;;;5119939;27;45356;-77
2021/07/25 01:38:24;;;;;;;;;3.00;3.00;;;;;;;;5120145;27;45362;-76
2021/07/25 01:41:04;;;;;;;;;3.00;3.00;;;;;;;;5118952;27;45345;-77
2021/07/25 01:43:30;;;;;;;;;3.00;3.00;;;;;;;;5120210;27;45219;-77
2021/07/25 01:45:56;;;;;;;;;3.00;3.00;;;;;;;;5120071;27;45301;-77
2021/07/25 01:48:21;;;;;;;;;4.00;4.00;;;;;;;;5119843;27;46128;-77
2021/07/25 01:50:46;;;;;;;;;2.33;2.33;;;;;;;;5120273;27;45244;-77
2021/07/25 01:53:11;;;;;;;;;4.33;4.00;;;;;;;;5123653;27;45266;-76
2021/07/25 01:55:36;;;;;;;;;5.67;5.00;;;;;;;;5123642;27;45214;-77
2021/07/25 01:58:02;;;;;;;;;4.00;4.00;;;;;;;;5123533;27;46194;-77
2021/07/25 02:00:27;;;;;;;;;4.33;3.00;;;;;;;;5123595;27;45183;-77
2021/07/25 02:02:52;;;;;;;;;1.33;1.33;;;;;;;;5123462;27;45281;-77
2021/07/25 02:05:17;;;;;;;;;3.00;3.00;;;;;;;;5123678;27;45485;-78
2021/07/25 02:07:42;;;;;;;;;4.33;4.33;;;;;;;;5123228;27;46219;-78
2021/07/25 02:10:08;;;;;;;;;5.00;5.00;;;;;;;;5122054;27;45278;-76
2021/07/25 02:12:33;;;;;;;;;4.00;4.00;;;;;;;;5123417;27;45320;-77
2021/07/25 02:14:58;;;;;;;;;5.00;5.00;;;;;;;;5122983;27;45299;-78
2021/07/25 02:17:24;;;;;;;;;5.00;5.00;;;;;;;;5121779;27;47012;-77
2021/07/25 02:19:49;;;;;;;;;4.00;4.00;;;;;;;;5123268;27;45422;-77
2021/07/25 02:22:14;;;;;;;;;3.00;3.00;;;;;;;;5122068;27;45570;-78
2021/07/25 02:24:40;;;;;;;;;4.67;4.00;;;;;;;;5122581;27;45827;-78
2021/07/25 02:27:06;;;;;;;;;3.33;3.33;;;;;;;;5123013;27;46231;-78
2021/07/25 02:29:31;;;;;;;;;5.00;4.67;;;;;;;;5123628;27;45934;-78
2021/07/25 02:31:56;;;;;;;;;4.00;3.33;;;;;;;;5143207;27;45255;-77
2021/07/25 02:34:21;;;;;;;;;4.33;4.33;;;;;;;;5143655;27;45301;-78
2021/07/25 02:36:47;;;;;;;;;3.00;3.00;;;;;;;;5143293;27;45380;-78
2021/07/25 02:39:12;;;;;;;;;3.33;3.00;;;;;;;;5144673;27;45320;-77
2021/07/25 02:41:38;;;;;;;;;5.00;4.00;;;;;;;;5144055;27;45304;-78
2021/07/25 02:44:04;;;;;;;;;4.00;4.00;;;;;;;;5142199;27;46320;-78
2021/07/25 02:46:29;;;;;;;;;4.00;4.00;;;;;;;;5143571;27;45251;-77
2021/07/25 02:48:54;;;;;;;;;4.33;4.33;;;;;;;;5143387;27;45349;-78
2021/07/25 02:51:19;;;;;;;;;4.33;4.33;;;;;;;;5143938;27;45755;-77
2021/07/25 02:53:45;;;;;;;;;3.67;3.00;;;;;;;;5141958;27;46352;-78
2021/07/25 02:56:10;;;;;;;;;5.00;5.00;;;;;;;;5143217;27;45300;-78
2021/07/25 02:58:35;;;;;;;;;6.00;6.00;;;;;;;;5143606;27;45293;-78
2021/07/25 03:01:08;;;;;;;;;4.67;4.67;;;;;;;;5142698;27;45278;-77
2021/07/25 03:03:33;;;;;;;;;3.33;3.33;;;;;;;;5143462;27;45533;-78
2021/07/25 03:05:58;;;;;;;;;4.33;3.33;;;;;;;;5144366;27;46124;-77
2021/07/25 03:08:23;;;;;;;;;3.00;3.00;;;;;;;;5143709;27;45218;-78
2021/07/25 03:10:48;;;;;;;;;7.33;3.67;;;;;;;;5143580;27;45295;-77
2021/07/25 03:13:14;;;;;;;;;5.67;5.00;;;;;;;;5142997;27;45517;-77
2021/07/25 03:15:39;;;;;;;;;5.00;4.00;;;;;;;;5141618;27;47274;-76
2021/07/25 03:18:04;;;;;;;;;6.00;5.33;;;;;;;;5142733;27;45390;-78
2021/07/25 03:20:29;;;;;;;;;6.67;6.00;;;;;;;;5143369;27;45322;-77
2021/07/25 03:22:54;;;;;;;;;5.67;5.67;;;;;;;;5142936;27;45205;-77
2021/07/25 03:25:19;;;;;;;;;6.00;3.67;;;;;;;;5143028;27;46097;-75
2021/07/25 03:27:45;;;;;;;;;6.00;4.67;;;;;;;;5143081;27;45118;-78
2021/07/25 03:30:11;;;;;;;;;5.00;4.00;;;;;;;;5135136;27;45436;-77
2021/07/25 03:32:36;;;;;;;;;5.67;5.67;;;;;;;;5122150;27;45424;-77
2021/07/25 03:35:01;;;;;;;;;3.00;3.00;;;;;;;;5121808;27;45547;-78
2021/07/25 03:37:27;;;;;;;;;6.00;6.00;;;;;;;;5121808;27;45196;-76
2021/07/25 03:39:54;;;;;;;;;3.67;3.67;;;;;;;;5122164;27;45453;-77
2021/07/25 03:42:19;;;;;;;;;4.67;4.00;;;;;;;;5121618;27;45414;-76
2021/07/25 03:44:44;;;;;;;;;6.00;5.67;;;;;;;;5121681;27;45281;-76
2021/07/25 03:47:10;;;;;;;;;4.33;4.33;;;;;;;;5121989;27;45440;-77
2021/07/25 03:49:37;;;;;;;;;8.67;6.00;;;;;;;;5121685;27;45452;-76
2021/07/25 03:52:02;;;;;;;;;5.00;5.00;;;;;;;;5121575;27;45649;-76
2021/07/25 03:54:27;;;;;;;;;5.00;5.00;;;;;;;;5121629;27;45255;-77
2021/07/25 03:56:53;;;;;;;;;5.00;5.00;;;;;;;;5121556;27;45392;-76
2021/07/25 03:59:18;;;;;;;;;6.33;6.00;;;;;;;;5121920;27;45497;-77
2021/07/25 04:01:43;;;;;;;;;3.67;3.67;;;;;;;;5121672;27;45454;-77
2021/07/25 04:04:08;;;;;;;;;5.00;4.67;;;;;;;;5121336;27;45255;-76
2021/07/25 04:06:34;;;;;;;;;5.00;5.00;;;;;;;;5121532;27;45372;-77
2021/07/25 04:08:59;;;;;;;;;6.00;5.00;;;;;;;;5121551;27;45216;-76
2021/07/25 04:11:25;;;;;;;;;5.33;3.67;;;;;;;;5121436;27;45207;-76
2021/07/25 04:13:50;;;;;;;;;4.67;4.67;;;;;;;;5120155;27;45658;-76
2021/07/25 04:16:15;;;;;;;;;6.33;5.33;;;;;;;;5121426;27;45393;-76
2021/07/25 04:18:41;;;;;;;;;5.00;5.00;;;;;;;;5121329;27;45324;-76
2021/07/25 04:21:06;;;;;;;;;6.67;6.00;;;;;;;;5121200;27;45349;-77
2021/07/25 04:23:31;;;;;;;;;4.33;4.33;;;;;;;;5119983;27;47683;-77
2021/07/25 04:25:56;;;;;;;;;4.00;4.00;;;;;;;;5121331;27;45200;-76
2021/07/25 04:28:22;;;;;;;;;4.00;4.00;;;;;;;;5121373;27;45208;-77
2021/07/25 04:30:47;;;;;;;;;6.00;6.00;;;;;;;;5133789;27;45195;-76
2021/07/25 04:33:15;;;;;;;;;4.00;4.00;;;;;;;;5140267;27;47664;-76
2021/07/25 04:35:40;;;;;;;;;5.00;5.00;;;;;;;;5141654;27;45322;-76
2021/07/25 04:38:06;;;;;;;;;4.67;4.67;;;;;;;;5141747;27;45323;-76
2021/07/25 04:40:31;;;;;;;;;2.67;2.67;;;;;;;;5141801;27;45537;-76
2021/07/25 04:42:58;;;;;;;;;7.00;6.00;;;;;;;;5141612;27;45227;-77
2021/07/25 04:45:32;;;;;;;;;7.67;7.33;;;;;;;;5141731;27;45215;-76
2021/07/25 04:48:01;;;;;;;;;5.67;4.67;;;;;;;;5140228;27;45294;-77
2021/07/25 04:50:33;;;;;;;;;2.67;2.67;;;;;;;;5141580;27;45471;-77
2021/07/25 04:53:00;;;;;;;;;4.67;4.67;;;;;;;;5141425;27;46505;-77
2021/07/25 04:55:30;;;;;;;;;6.67;5.67;;;;;;;;5141549;27;45303;-77
2021/07/25 04:58:02;;;;;;;;;3.33;3.00;;;;;;;;5141677;27;45301;-77
2021/07/25 05:00:30;;;;;;;;;4.33;4.33;;;;;;;;5141573;27;45522;-78
2021/07/25 05:03:00;;;;;;;;;3.33;2.67;;;;;;;;5141322;27;45951;-77
2021/07/25 05:05:25;;;;;;;;;5.67;5.00;;;;;;;;5140058;27;45242;-77
2021/07/25 05:07:52;;;;;;;;;3.67;3.33;;;;;;;;5141406;27;45291;-77
2021/07/25 05:10:18;;;;;;;;;4.33;4.00;;;;;;;;5141456;27;45372;-78
2021/07/25 05:12:44;;;;;;;;;4.00;2.67;;;;;;;;5139882;27;47281;-78
2021/07/25 05:15:21;;;;;;;;;4.00;4.00;;;;;;;;5139930;27;45332;-77
2021/07/25 05:18:02;;;;;;;;;2.33;2.33;;;;;;;;5141156;27;45352;-77
2021/07/25 05:20:31;;;;;;;;;2.67;2.67;;;;;;;;5141210;27;45955;-77
2021/07/25 05:23:02;;;;;;;;;4.00;4.00;;;;;;;;5139783;27;47543;-76
2021/07/25 05:25:28;;;;;;;;;4.00;4.00;;;;;;;;5142260;27;45225;-77
2021/07/25 05:27:54;;;;;;;;;5.00;4.67;;;;;;;;5144930;27;45274;-77
2021/07/25 05:30:21;;;;;;;;;3.33;3.33;;;;;;;;5135877;27;45382;-76
2021/07/25 05:32:46;;;;;;;;;4.00;3.00;;;;;;;;5123606;27;45476;-76
2021/07/25 05:35:12;;;;;;;;;3.00;3.00;;;;;;;;5122466;27;45908;-76
2021/07/25 05:37:37;;;;;;;;;4.00;4.00;;;;;;;;5123872;27;45453;-77
2021/07/25 05:40:03;;;;;;;;;5.00;5.00;;;;;;;;5122381;27;45917;-76
2021/07/25 05:42:29;;;;;;;;;5.33;4.33;;;;;;;;5122299;27;47212;-76
2021/07/25 05:44:54;;;;;;;;;5.00;4.00;;;;;;;;5122239;27;45617;-76
2021/07/25 05:47:19;;;;;;;;;4.00;4.00;;;;;;;;5123953;27;45239;-76
2021/07/25 05:49:44;;;;;;;;;5.00;4.33;;;;;;;;5123651;27;45272;-76
2021/07/25 05:52:09;;;;;;;;;4.67;4.67;;;;;;;;5123544;27;45335;-76
2021/07/25 05:54:35;;;;;;;;;7.00;7.00;;;;;;;;5123848;27;45332;-76
2021/07/25 05:57:00;;;;;;;;;2.67;2.67;;;;;;;;5123609;27;45380;-76
2021/07/25 05:59:25;;;;;;;;;3.33;2.33;;;;;;;;5122227;27;45413;-76
2021/07/25 06:01:52;;;;;;;;;4.33;4.33;;;;;;;;5123465;27;45530;-76
2021/07/25 06:04:17;;;;;;;;;6.33;6.33;;;;;;;;5123163;27;45221;-74
2021/07/25 06:06:42;;;;;;;;;4.67;4.67;;;;;;;;5123515;27;45415;-75
2021/07/25 06:09:07;;;;;;;;;4.33;4.33;;;;;;;;5122001;27;46520;-76
2021/07/25 06:11:33;;;;;;;;;6.00;6.00;;;;;;;;5123545;27;47004;-77
2021/07/25 06:13:59;;;;;;;;;4.33;4.33;;;;;;;;5123140;27;45345;-78
2021/07/25 06:16:24;;;;;;;;;5.00;5.00;;;;;;;;5123360;27;45367;-77
2021/07/25 06:18:49;;;;;;;;;5.33;4.33;;;;;;;;5123019;27;45374;-77
2021/07/25 06:21:15;;;;;;;;;5.00;5.00;;;;;;;;5123065;27;45468;-77
2021/07/25 06:23:40;;;;;;;;;6.00;5.67;;;;;;;;5123219;27;45634;-77
2021/07/25 06:26:06;;;;;;;;;6.67;6.67;;;;;;;;5123329;27;45334;-77
2021/07/25 06:28:31;;;;;;;;;5.33;5.33;;;;;;;;5122898;27;45232;-76
2021/07/25 06:30:56;;;;;;;;;5.00;5.00;;;;;;;;5137055;27;46617;-76
2021/07/25 06:33:21;;;;;;;;;5.00;5.00;;;;;;;;5143635;27;45354;-76
2021/07/25 06:35:46;;;;;;;;;6.33;5.67;;;;;;;;5143804;27;45235;-76
2021/07/25 06:38:13;;;;;;;;;6.00;5.67;;;;;;;;5142605;27;45309;-75
2021/07/25 06:40:40;;;;;;;;;6.33;5.00;;;;;;;;5143581;27;45231;-76
2021/07/25 06:43:05;;;;;;;;;6.67;6.67;;;;;;;;5143426;27;45351;-76
2021/07/25 06:45:31;;;;;;;;;4.00;3.67;;;;;;;;5143811;27;45276;-76
2021/07/25 06:47:56;;;;;;;;;5.33;5.00;;;;;;;;5143319;27;45964;-76
2021/07/25 06:50:23;;;;;;;;;5.33;5.33;;;;;;;;5143498;27;45171;-77
2021/07/25 06:52:48;;;;;;;;;7.67;6.00;;;;;;;;5143384;27;45269;-77
2021/07/25 06:55:14;;;;;;;;;7.33;5.67;;;;;;;;5143631;27;45313;-77
2021/07/25 06:57:39;;;;;;;;;10.00;9.00;;;;;;;;5142021;27;46356;-76
2021/07/25 07:00:05;;;;;;;;;8.67;7.00;;;;;;;;5143265;27;46253;-77
2021/07/25 07:02:46;;;;;;;;;7.67;7.67;;;;;;;;5141986;27;45358;-77
2021/07/25 07:05:11;;;;;;;;;6.00;6.00;;;;;;;;5143527;27;45289;-77
2021/07/25 07:07:37;;;;;;;;;7.00;5.00;;;;;;;;5143185;27;45285;-76
2021/07/25 07:10:02;;;;;;;;;6.00;5.67;;;;;;;;5143102;27;46285;-77
2021/07/25 07:12:27;;;;;;;;;6.33;6.33;;;;;;;;5143360;27;45328;-77
2021/07/25 07:14:52;;;;;;;;;6.00;6.00;;;;;;;;5143190;27;45284;-77
2021/07/25 07:17:19;;;;;;;;;6.00;6.00;;;;;;;;5141654;27;47140;-77
2021/07/25 07:19:44;;;;;;;;;11.00;8.00;;;;;;;;5141368;27;47541;-78
2021/07/25 07:22:09;;;;;;;;;6.33;6.33;;;;;;;;5142866;27;45304;-76
2021/07/25 07:24:35;;;;;;;;;5.67;5.67;;;;;;;;5143229;27;45259;-77
2021/07/25 07:27:00;;;;;;;;;5.33;4.67;;;;;;;;5142982;27;45347;-77
2021/07/25 07:29:25;;;;;;;;;7.00;7.00;;;;;;;;5141706;27;46424;-77
2021/07/25 07:31:50;;;;;;;;;8.00;7.00;;;;;;;;5122250;27;45332;-76
2021/07/25 07:34:15;;;;;;;;;6.33;6.00;;;;;;;;5120628;27;45521;-75
2021/07/25 07:36:40;;;;;;;;;9.00;9.00;;;;;;;;5121642;27;45357;-75
2021/07/25 07:39:06;;;;;;;;;9.00;9.00;;;;;;;;5121933;27;45300;-74
2021/07/25 07:41:31;;;;;;;;;6.33;6.33;;;;;;;;5121974;27;45288;-75
2021/07/25 07:43:56;;;;;;;;;7.00;6.00;;;;;;;;5121926;27;45588;-75
2021/07/25 07:46:21;;;;;;;;;8.33;8.33;;;;;;;;5121782;27;45513;-75
2021/07/25 07:48:46;;;;;;;;;10.67;9.33;;;;;;;;5121550;27;45232;-75
2021/07/25 07:51:12;;;;;;;;;6.00;6.00;;;;;;;;5121774;27;45437;-75
2021/07/25 07:53:37;;;;;;;;;11.00;8.67;;;;;;;;5122781;27;45448;-75
2021/07/25 07:56:02;;;;;;;;;8.00;7.33;;;;;;;;5121760;27;45476;-75
2021/07/25 07:58:27;;;;;;;;;8.00;8.00;;;;;;;;5120248;27;47982;-75
2021/07/25 08:00:52;;;;;;;;;11.00;10.00;;;;;;;;5122110;27;45759;-75
2021/07/25 08:03:17;;;;;;;;;7.67;7.67;;;;;;;;5121891;27;45355;-76
2021/07/25 08:05:43;;;;;;;;;10.00;9.33;;;;;;;;5122627;27;45317;-75
2021/07/25 08:08:08;;;;;;;;;10.00;10.00;;;;;;;;5122175;27;47095;-74
2021/07/25 08:10:33;;;;;;;;;10.00;10.00;;;;;;;;5124142;27;45351;-75
2021/07/25 08:12:58;;;;;;;;;10.67;10.67;;;;;;;;5124177;27;45152;-75
2021/07/25 08:15:23;;;;;;;;;9.67;9.33;;;;;;;;5123692;27;45521;-75
2021/07/25 08:17:49;;;;;;;;;9.00;9.00;;;;;;;;5123515;27;46126;-75
2021/07/25 08:20:15;;;;;;;;;15.00;10.00;;;;;;;;5131071;27;45217;-75
2021/07/25 08:22:40;;;;;;;;;9.67;9.67;;;;;;;;5132478;27;44702;-75
2021/07/25 08:25:06;;;;;;;;;8.33;8.33;;;;;;;;5134834;27;45223;-76
2021/07/25 08:27:31;;;;;;;;;8.67;8.00;;;;;;;;5138614;27;45548;-77
2021/07/25 08:29:56;;;;;;;;;9.00;9.00;;;;;;;;5142752;27;45884;-74
2021/07/25 08:32:21;;;;;;;;;10.33;10.00;;;;;;;;5158829;27;44704;-74
2021/07/25 08:34:47;;;;;;;;;14.33;12.67;;;;;;;;5152382;27;45189;-75
2021/07/25 08:37:12;;;;;;;;;12.00;9.67;;;;;;;;5155260;27;46194;-75
2021/07/25 08:39:37;;;;;;;;;11.67;11.33;;;;;;;;5161191;27;44513;-76
2021/07/25 08:42:10;;;;;;;;;10.00;9.00;;;;;;;;5158200;27;44627;-75
2021/07/25 08:44:45;;;;;;;;;11.00;11.00;;;;;;;;5161737;27;45235;-75
2021/07/25 08:47:19;;;;;;;;;9.00;9.00;;;;;;;;5160563;27;45032;-76
2021/07/25 08:49:55;;;;;;;;;11.00;10.00;;;;;;;;5159805;27;45274;-75
2021/07/25 08:52:34;;;;;;;;;13.00;13.00;;;;;;;;5164559;27;44670;-77
2021/07/25 08:55:01;;;;;;;;;10.33;9.67;;;;;;;;5162283;27;47383;-76
2021/07/25 08:57:31;;;;;;;;;10.33;9.00;;;;;;;;5163726;27;48423;-76
2021/07/25 08:59:57;;;;;;;;;11.00;10.00;;;;;;;;5161908;27;45125;-76
2021/07/25 09:02:22;;;;;;;;;9.67;8.00;;;;;;;;5163274;27;45181;-75
2021/07/25 09:04:47;;;;;;;;;9.00;7.67;;;;;;;;5162400;27;45593;-76
2021/07/25 09:07:13;;;;;;;;;9.00;9.00;;;;;;;;5169823;27;46167;-75
2021/07/25 09:09:40;;;;;;;;;10.00;10.00;;;;;;;;5165396;27;44616;-76
2021/07/25 09:12:05;;;;;;;;;8.00;7.00;;;;;;;;5169089;27;44708;-76
2021/07/25 09:14:31;;;;;;;;;11.33;10.67;;;;;;;;5166671;27;47541;-75
2021/07/25 09:16:56;;;;;;;;;8.00;8.00;;;;;;;;5166950;27;45257;-75
2021/07/25 09:19:21;;;;;;;;;9.67;9.67;;;;;;;;5164221;27;44888;-75
2021/07/25 09:21:51;;;;;;;;;10.00;10.00;;;;;;;;5167594;27;44684;-75
2021/07/25 09:24:17;;;;;;;;;11.67;11.00;;;;;;;;5161833;27;45780;-75
2021/07/25 09:26:58;;;;;;;;;10.00;10.00;;;;;;;;5161647;27;45189;-76
2021/07/25 09:29:25;;;;;;;;;10.33;10.00;;;;;;;;5161832;27;44569;-75
2021/07/25 09:31:50;;;;;;;;;9.33;9.33;;;;;;;;5161078;27;44781;-75
2021/07/25 09:34:36;;;;;;;;;8.33;8.33;;;;;;;;5161839;27;44932;-75
2021/07/25 09:37:10;;;;;;;;;13.00;11.00;;;;;;;;5165197;27;45496;-75
2021/07/25 09:39:40;;;;;;;;;8.33;8.33;;;;;;;;5162711;27;44624;-76
2021/07/25 09:42:06;;;;;;;;;10.33;9.00;;;;;;;;5162431;27;45406;-76
2021/07/25 09:44:44;;;;;;;;;9.33;9.00;;;;;;;;5158855;27;46105;-76
2021/07/25 09:47:22;;;;;;;;;10.33;9.00;;;;;;;;5154812;27;46215;-75
2021/07/25 09:49:47;;;;;;;;;8.33;8.33;;;;;;;;5145247;27;45275;-76
2021/07/25 09:52:13;;;;;;;;;12.00;11.67;;;;;;;;5144606;27;45228;-76
2021/07/25 09:54:38;;;;;;;;;10.67;10.67;;;;;;;;5144700;27;45570;-77
2021/07/25 09:57:10;;;;;;;;;9.67;9.67;;;;;;;;5144263;27;45958;-75
2021/07/25 09:59:36;;;;;;;;;11.33;9.67;;;;;;;;5143065;27;45520;-75
2021/07/25 10:02:01;;;;;;;;;10.67;9.00;;;;;;;;5144363;27;45496;-75
2021/07/25 10:04:26;;;;;;;;;11.00;11.00;;;;;;;;5144225;27;45292;-75
2021/07/25 10:06:53;;;;;;;;;12.00;11.33;;;;;;;;5144151;27;45613;-75
2021/07/25 10:09:20;;;;;;;;;11.33;10.67;;;;;;;;5144082;27;45373;-75
2021/07/25 10:11:48;;;;;;;;;11.00;11.00;;;;;;;;5143108;27;45307;-75
2021/07/25 10:14:18;;;;;;;;;12.67;12.33;;;;;;;;5143679;27;45532;-74
2021/07/25 10:16:44;;;;;;;;;10.33;10.33;;;;;;;;5143890;27;46230;-74
2021/07/25 10:19:09;;;;;;;;;14.67;13.00;;;;;;;;5143994;27;45334;-74
2021/07/25 10:21:36;;;;;;;;;12.00;11.00;;;;;;;;5144622;27;45465;-75
2021/07/25 10:24:02;;;;;;;;;12.00;12.00;;;;;;;;5144062;27;45320;-74
2021/07/25 10:26:28;;;;;;;;;12.33;10.67;;;;;;;;5142699;27;46178;-74
2021/07/25 10:28:57;;;;;;;;;12.00;12.00;;;;;;;;5144556;27;45203;-75
2021/07/25 10:31:23;;;;;;;;;13.00;12.00;;;;;;;;5125605;27;45267;-74
2021/07/25 10:33:50;;;;;;;;;11.67;10.00;;;;;;;;5123502;27;45284;-74
2021/07/25 10:36:16;;;;;;;;;11.33;11.00;;;;;;;;5123419;27;45341;-74
2021/07/25 10:38:42;;;;;;;;;9.33;9.33;;;;;;;;5122956;27;45344;-76
2021/07/25 10:41:08;;;;;;;;;12.00;12.00;;;;;;;;5123821;27;45286;-75
2021/07/25 10:43:33;;;;;;;;;12.33;12.33;;;;;;;;5123295;27;45226;-75
2021/07/25 10:46:14;;;;;;;;;9.00;9.00;;;;;;;;5121647;27;47435;-75
2021/07/25 10:48:57;;;;;;;;;11.00;11.00;;;;;;;;5123462;27;45283;-75
2021/07/25 10:51:24;;;;;;;;;10.33;10.33;;;;;;;;5123171;27;45416;-76
2021/07/25 10:53:49;;;;;;;;;10.67;10.67;;;;;;;;5122725;27;45328;-74
2021/07/25 10:56:14;;;;;;;;;8.33;7.33;;;;;;;;5122752;27;45309;-75
2021/07/25 10:58:52;;;;;;;;;9.00;9.00;;;;;;;;5123496;27;45279;-74
2021/07/25 11:01:37;;;;;;;;;11.00;9.00;;;;;;;;5123371;27;45244;-75
2021/07/25 11:04:02;;;;;;;;;11.33;11.33;;;;;;;;5122487;27;46042;-75
2021/07/25 11:06:28;;;;;;;;;7.33;7.33;;;;;;;;5123546;27;45325;-75
2021/07/25 11:08:54;;;;;;;;;6.67;5.00;;;;;;;;5123815;27;45352;-76
2021/07/25 11:11:26;;;;;;;;;7.33;6.00;;;;;;;;5125355;27;45204;-76
2021/07/25 11:13:51;;;;;;;;;7.67;7.00;;;;;;;;5126304;27;45580;-75
2021/07/25 11:16:32;;;;;;;;;6.00;5.67;;;;;;;;5131666;27;48375;-75
2021/07/25 11:18:58;;;;;;;;;6.00;6.00;;;;;;;;5136415;27;45262;-76
2021/07/25 11:21:34;;;;;;;;;8.33;7.33;;;;;;;;5134171;27;45195;-75
2021/07/25 11:23:59;;;;;;;;;7.00;7.00;;;;;;;;5136131;27;45619;-74
2021/07/25 11:26:32;;;;;;;;;8.67;8.67;;;;;;;;5132940;27;46955;-75
2021/07/25 11:28:58;;;;;;;;;10.00;10.00;;;;;;;;5132244;27;45126;-75
2021/07/25 11:31:36;;;;;;;;;9.33;9.00;;;;;;;;5137317;27;45373;-76
2021/07/25 11:34:02;;;;;;;;;7.33;7.33;;;;;;;;5135051;27;45328;-76
2021/07/25 11:36:28;;;;;;;;;8.00;8.00;;;;;;;;5136496;27;45201;-78
2021/07/25 11:38:59;;;;;;;;;11.67;11.00;;;;;;;;5136532;27;45316;-77
2021/07/25 11:41:31;;;;;;;;;7.33;7.33;;;;;;;;5141689;27;44682;-75
2021/07/25 11:43:58;;;;;;;;;9.67;9.00;;;;;;;;5139996;27;45271;-77
2021/07/25 11:46:36;;;;;;;;;9.00;8.67;;;;;;;;5140305;27;45240;-77
2021/07/25 11:49:06;;;;;;;;;10.67;10.67;;;;;;;;5139967;27;45320;-76
2021/07/25 11:51:32;;;;;;;;;10.00;10.00;;;;;;;;5142786;27;45401;-76
2021/07/25 11:53:57;;;;;;;;;10.33;10.00;;;;;;;;5142940;27;45279;-77
2021/07/25 11:56:23;;;;;;;;;9.67;9.00;;;;;;;;5142829;27;48439;-76
2021/07/25 11:59:18;;;;;;;;;11.33;11.33;;;;;;;;5139761;27;45449;-75
2021/07/25 12:01:43;;;;;;;;;10.33;9.00;;;;;;;;5136108;27;45289;-76
2021/07/25 12:04:22;;;;;;;;;12.33;11.33;;;;;;;;5140225;27;45063;-75
2021/07/25 12:06:56;;;;;;;;;8.67;8.67;;;;;;;;5141809;27;45837;-76
2021/07/25 12:09:22;;;;;;;;;9.33;9.33;;;;;;;;5142585;27;44667;-75
2021/07/25 12:11:47;;;;;;;;;10.33;9.00;;;;;;;;5137602;27;44592;-77
2021/07/25 12:14:13;;;;;;;;;11.33;10.00;;;;;;;;5133983;27;45324;-76
2021/07/25 12:16:45;;;;;;;;;10.00;10.00;;;;;;;;5136217;27;47173;-75
2021/07/25 12:19:12;;;;;;;;;11.33;10.67;;;;;;;;5136466;27;45193;-77
2021/07/25 12:21:37;;;;;;;;;11.33;11.33;;;;;;;;5124054;27;45333;-75
2021/07/25 12:24:02;;;;;;;;;12.67;9.00;;;;;;;;5121275;27;45336;-75
2021/07/25 12:26:41;;;;;;;;;11.33;11.33;;;;;;;;5121260;27;45300;-75
2021/07/25 12:29:24;;;;;;;;;11.67;11.67;;;;;;;;5121312;27;45234;-75
2021/07/25 12:31:50;;;;;;;;;11.00;11.00;;;;;;;;5100760;27;45386;-75
2021/07/25 12:34:21;;;;;;;;;11.67;11.67;;;;;;;;5100391;27;45236;-75
2021/07/25 12:36:46;;;;;;;;;9.33;8.67;;;;;;;;5100102;27;46397;-75
2021/07/25 12:39:18;;;;;;;;;8.33;8.00;;;;;;;;5101313;27;45311;-75
2021/07/25 12:41:43;;;;;;;;;10.00;9.33;;;;;;;;5102597;27;45291;-75
2021/07/25 12:44:08;;;;;;;;;14.00;10.67;;;;;;;;5101446;27;45832;-75
2021/07/25 12:46:33;;;;;;;;;9.67;8.67;;;;;;;;5101941;27;47294;-75
2021/07/25 12:49:05;;;;;;;;;12.67;11.33;;;;;;;;5114415;27;45460;-76
2021/07/25 12:51:41;;;;;;;;;9.00;9.00;;;;;;;;5109345;27;45168;-76
2021/07/25 12:54:07;;;;;;;;;11.33;10.67;;;;;;;;5121425;27;45188;-76
2021/07/25 12:56:33;;;;;;;;;8.33;7.67;;;;;;;;5120142;27;44977;-76
2021/07/25 12:59:00;;;;;;;;;10.33;10.33;;;;;;;;5122176;27;44719;-76
2021/07/25 13:03:58;;;;;;;;;13.00;13.00;;;;;;;;5121715;27;44579;-77
2021/07/25 13:06:26;;;;;;;;;10.67;10.33;;;;;;;;5119353;27;45096;-76
2021/07/25 13:09:02;;;;;;;;;7.33;7.33;;;;;;;;5116666;27;46197;-78
2021/07/25 13:11:29;;;;;;;;;8.33;8.00;;;;;;;;5119546;27;44602;-77
2021/07/25 13:13:58;;;;;;;;;8.67;8.00;;;;;;;;5119013;27;44819;-77
2021/07/25 13:16:23;;;;;;;;;8.33;8.33;;;;;;;;5119273;27;45107;-78
2021/07/25 13:18:50;;;;;;;;;8.00;8.00;;;;;;;;5119100;27;45339;-77
2021/07/25 13:21:16;;;;;;;;;10.33;9.33;;;;;;;;5120387;27;44731;-76
2021/07/25 13:23:41;;;;;;;;;7.00;7.00;;;;;;;;5117029;27;45517;-77
2021/07/25 13:26:07;;;;;;;;;8.00;8.00;;;;;;;;5114137;27;47566;-76
2021/07/25 13:28:32;;;;;;;;;6.00;6.00;;;;;;;;5116314;27;44657;-77
2021/07/25 13:30:58;;;;;;;;;9.00;7.67;;;;;;;;5144904;27;45221;-76
2021/07/25 13:33:24;;;;;;;;;6.00;5.33;;;;;;;;5158749;27;45189;-75
2021/07/25 13:35:49;;;;;;;;;9.33;9.00;;;;;;;;5159490;27;45261;-76
2021/07/25 13:38:15;;;;;;;;;7.33;7.00;;;;;;;;5160208;27;45347;-77
2021/07/25 13:40:40;;;;;;;;;9.33;9.33;;;;;;;;5156467;27;45193;-75
2021/07/25 13:43:11;;;;;;;;;10.00;9.67;;;;;;;;5156850;27;45464;-76
2021/07/25 13:45:37;;;;;;;;;9.00;9.00;;;;;;;;5153498;27;46190;-75
2021/07/25 13:48:02;;;;;;;;;10.00;10.00;;;;;;;;5158918;27;45283;-77
2021/07/25 13:50:29;;;;;;;;;8.00;8.00;;;;;;;;5159013;27;45188;-77
2021/07/25 13:52:55;;;;;;;;;10.00;9.67;;;;;;;;5157004;27;45465;-76
2021/07/25 13:55:20;;;;;;;;;8.00;7.00;;;;;;;;5156505;27;46070;-77
2021/07/25 13:57:45;;;;;;;;;10.33;10.33;;;;;;;;5158009;27;45146;-76
2021/07/25 14:00:11;;;;;;;;;10.00;8.00;;;;;;;;5157131;27;45328;-78
2021/07/25 14:02:36;;;;;;;;;8.67;8.67;;;;;;;;5161504;27;45229;-75
2021/07/25 14:05:01;;;;;;;;;8.67;8.00;;;;;;;;5158122;27;45002;-75
2021/07/25 14:07:27;;;;;;;;;9.33;9.33;;;;;;;;5161483;27;45292;-76
2021/07/25 14:09:52;;;;;;;;;9.00;7.00;;;;;;;;5163233;27;44667;-76
2021/07/25 14:12:17;;;;;;;;;7.67;7.33;;;;;;;;5161651;27;45131;-77
2021/07/25 14:14:42;;;;;;;;;11.00;9.00;;;;;;;;5160558;27;45589;-76
2021/07/25 14:17:07;;;;;;;;;7.00;6.00;;;;;;;;5158351;27;45957;-76
2021/07/25 14:19:33;;;;;;;;;7.67;7.67;;;;;;;;5160767;27;44605;-76
2021/07/25 14:22:03;;;;;;;;;6.00;5.00;;;;;;;;5161737;27;44577;-75
2021/07/25 14:24:28;;;;;;;;;8.00;8.00;;;;;;;;5160863;27;46142;-77
2021/07/25 14:26:53;;;;;;;;;6.33;6.33;;;;;;;;5161946;27;45212;-76
2021/07/25 14:29:19;;;;;;;;;5.67;4.67;;;;;;;;5163843;27;44691;-75
2021/07/25 14:31:44;;;;;;;;;8.33;7.00;;;;;;;;5141816;27;45455;-78
2021/07/25 14:34:09;;;;;;;;;7.00;7.00;;;;;;;;5137765;27;45902;-76
2021/07/25 14:36:34;;;;;;;;;7.67;7.67;;;;;;;;5139316;27;45280;-76
2021/07/25 14:38:59;;;;;;;;;6.33;6.33;;;;;;;;5138852;27;44691;-78